sensor_id;sensor_type;location;lat;lon;timestamp;P1;durP1;ratioP1;P2;durP2;ratioP2
7989;SDS011;4040;42.848;23.034;2024-02-23T00:01:26;18.67;;;10.97;;
7989;SDS011;4040;42.848;23.034;2024-02-23T00:03:53;29.13;;;13.53;;
7989;SDS011;4040;42.848;23.034;2024-02-23T00:06:21;26.10;;;12.80;;
7989;SDS011;4040;42.848;23.034;2024-02-23T00:08:52;19.73;;;9.53;;
7989;SDS011;4040;42.848;23.034;2024-02-23T00:11:20;35.63;;;16.57;;
7989;SDS011;4040;42.848;23.034;2024-02-23T00:13:49;36.87;;;14.77;;
7989;SDS011;4040;42.848;23.034;2024-02-23T00:16:16;35.07;;;14.70;;
7989;SDS011;4040;42.848;23.034;2024-02-23T00:18:44;36.87;;;14.50;;
7989;SDS011;4040;42.848;23.034;2024-02-23T00:21:12;24.10;;;11.50;;
7989;SDS011;4040;42.848;23.034;2024-02-23T00:23:39;23.17;;;11.90;;
7989;SDS011;4040;42.848;23.034;2024-02-23T00:26:07;26.50;;;11.83;;
7989;SDS011;4040;42.848;23.034;2024-02-23T00:28:34;24.17;;;12.77;;
7989;SDS011;4040;42.848;23.034;2024-02-23T00:31:03;20.60;;;9.97;;
7989;SDS011;4040;42.848;23.034;2024-02-23T00:33:31;23.33;;;11.07;;
7989;SDS011;4040;42.848;23.034;2024-02-23T00:35:58;29.57;;;12.33;;
7989;SDS011;4040;42.848;23.034;2024-02-23T00:38:26;20.53;;;11.90;;
7989;SDS011;4040;42.848;23.034;2024-02-23T00:40:53;18.00;;;9.03;;
7989;SDS011;4040;42.848;23.034;2024-02-23T00:43:20;17.00;;;10.37;;
7989;SDS011;4040;42.848;23.034;2024-02-23T00:45:48;39.30;;;16.77;;
7989;SDS011;4040;42.848;23.034;2024-02-23T00:48:17;21.57;;;10.83;;
7989;SDS011;4040;42.848;23.034;2024-02-23T00:50:44;18.70;;;9.70;;
7989;SDS011;4040;42.848;23.034;2024-02-23T00:53:12;22.83;;;10.63;;
7989;SDS011;4040;42.848;23.034;2024-02-23T00:55:39;22.13;;;11.00;;
7989;SDS011;4040;42.848;23.034;2024-02-23T00:58:06;16.60;;;8.00;;
7989;SDS011;4040;42.848;23.034;2024-02-23T01:00:34;17.63;;;10.43;;
7989;SDS011;4040;42.848;23.034;2024-02-23T01:03:01;21.70;;;10.90;;
7989;SDS011;4040;42.848;23.034;2024-02-23T01:05:30;12.87;;;6.80;;
7989;SDS011;4040;42.848;23.034;2024-02-23T01:07:58;17.47;;;8.43;;
7989;SDS011;4040;42.848;23.034;2024-02-23T01:10:25;15.80;;;9.37;;
7989;SDS011;4040;42.848;23.034;2024-02-23T01:12:52;12.43;;;8.67;;
7989;SDS011;4040;42.848;23.034;2024-02-23T01:15:20;20.80;;;9.67;;
7989;SDS011;4040;42.848;23.034;2024-02-23T01:17:47;45.57;;;21.40;;
7989;SDS011;4040;42.848;23.034;2024-02-23T01:20:15;18.53;;;9.03;;
7989;SDS011;4040;42.848;23.034;2024-02-23T01:22:44;17.07;;;8.23;;
7989;SDS011;4040;42.848;23.034;2024-02-23T01:25:12;17.77;;;9.50;;
7989;SDS011;4040;42.848;23.034;2024-02-23T01:27:40;17.43;;;8.67;;
7989;SDS011;4040;42.848;23.034;2024-02-23T01:30:10;19.70;;;9.33;;
7989;SDS011;4040;42.848;23.034;2024-02-23T01:32:38;18.70;;;10.57;;
7989;SDS011;4040;42.848;23.034;2024-02-23T01:35:06;16.13;;;9.40;;
7989;SDS011;4040;42.848;23.034;2024-02-23T01:37:34;23.03;;;10.13;;
7989;SDS011;4040;42.848;23.034;2024-02-23T01:40:04;20.83;;;10.73;;
7989;SDS011;4040;42.848;23.034;2024-02-23T01:42:32;15.73;;;9.93;;
7989;SDS011;4040;42.848;23.034;2024-02-23T01:45:00;17.10;;;9.77;;
7989;SDS011;4040;42.848;23.034;2024-02-23T01:47:29;17.20;;;9.20;;
7989;SDS011;4040;42.848;23.034;2024-02-23T01:49:57;19.73;;;10.37;;
7989;SDS011;4040;42.848;23.034;2024-02-23T01:52:26;18.07;;;9.43;;
7989;SDS011;4040;42.848;23.034;2024-02-23T01:54:54;19.63;;;9.23;;
7989;SDS011;4040;42.848;23.034;2024-02-23T01:57:23;16.57;;;8.53;;
7989;SDS011;4040;42.848;23.034;2024-02-23T01:59:51;11.73;;;7.63;;
7989;SDS011;4040;42.848;23.034;2024-02-23T02:02:19;15.90;;;10.50;;
7989;SDS011;4040;42.848;23.034;2024-02-23T02:04:46;32.87;;;14.87;;
7989;SDS011;4040;42.848;23.034;2024-02-23T02:07:13;27.87;;;15.23;;
7989;SDS011;4040;42.848;23.034;2024-02-23T02:09:41;16.17;;;9.83;;
7989;SDS011;4040;42.848;23.034;2024-02-23T02:12:08;22.23;;;10.47;;
7989;SDS011;4040;42.848;23.034;2024-02-23T02:14:37;16.50;;;9.77;;
7989;SDS011;4040;42.848;23.034;2024-02-23T02:17:05;14.83;;;8.10;;
7989;SDS011;4040;42.848;23.034;2024-02-23T02:19:32;13.67;;;8.47;;
7989;SDS011;4040;42.848;23.034;2024-02-23T02:22:00;11.53;;;7.87;;
7989;SDS011;4040;42.848;23.034;2024-02-23T02:24:27;22.23;;;10.33;;
7989;SDS011;4040;42.848;23.034;2024-02-23T02:26:55;20.47;;;10.70;;
7989;SDS011;4040;42.848;23.034;2024-02-23T02:29:22;17.03;;;9.90;;
7989;SDS011;4040;42.848;23.034;2024-02-23T02:31:51;23.50;;;10.93;;
7989;SDS011;4040;42.848;23.034;2024-02-23T02:34:18;14.57;;;7.93;;
7989;SDS011;4040;42.848;23.034;2024-02-23T02:36:45;14.73;;;7.90;;
7989;SDS011;4040;42.848;23.034;2024-02-23T02:39:13;10.57;;;7.17;;
7989;SDS011;4040;42.848;23.034;2024-02-23T02:41:40;12.37;;;7.90;;
7989;SDS011;4040;42.848;23.034;2024-02-23T02:44:07;37.77;;;14.93;;
7989;SDS011;4040;42.848;23.034;2024-02-23T02:46:35;26.87;;;12.07;;
7989;SDS011;4040;42.848;23.034;2024-02-23T02:49:04;26.43;;;13.83;;
7989;SDS011;4040;42.848;23.034;2024-02-23T02:51:31;29.60;;;13.87;;
7989;SDS011;4040;42.848;23.034;2024-02-23T02:53:59;24.80;;;12.43;;
7989;SDS011;4040;42.848;23.034;2024-02-23T02:56:26;17.10;;;8.73;;
7989;SDS011;4040;42.848;23.034;2024-02-23T02:58:54;22.20;;;10.70;;
7989;SDS011;4040;42.848;23.034;2024-02-23T03:01:22;18.63;;;12.10;;
7989;SDS011;4040;42.848;23.034;2024-02-23T03:03:49;23.43;;;10.07;;
7989;SDS011;4040;42.848;23.034;2024-02-23T03:06:18;18.97;;;10.47;;
7989;SDS011;4040;42.848;23.034;2024-02-23T03:08:45;16.70;;;9.40;;
7989;SDS011;4040;42.848;23.034;2024-02-23T03:11:13;15.73;;;8.70;;
7989;SDS011;4040;42.848;23.034;2024-02-23T03:13:40;20.30;;;9.80;;
7989;SDS011;4040;42.848;23.034;2024-02-23T03:16:14;19.10;;;9.90;;
7989;SDS011;4040;42.848;23.034;2024-02-23T03:18:42;17.00;;;8.63;;
7989;SDS011;4040;42.848;23.034;2024-02-23T03:21:09;18.97;;;9.60;;
7989;SDS011;4040;42.848;23.034;2024-02-23T03:23:38;21.10;;;10.23;;
7989;SDS011;4040;42.848;23.034;2024-02-23T03:26:06;23.97;;;9.77;;
7989;SDS011;4040;42.848;23.034;2024-02-23T03:28:34;17.30;;;10.13;;
7989;SDS011;4040;42.848;23.034;2024-02-23T03:31:01;18.23;;;10.77;;
7989;SDS011;4040;42.848;23.034;2024-02-23T03:33:29;18.07;;;10.70;;
7989;SDS011;4040;42.848;23.034;2024-02-23T03:35:57;18.90;;;9.30;;
7989;SDS011;4040;42.848;23.034;2024-02-23T03:38:25;16.67;;;10.90;;
7989;SDS011;4040;42.848;23.034;2024-02-23T03:40:55;17.27;;;9.00;;
7989;SDS011;4040;42.848;23.034;2024-02-23T03:43:23;23.90;;;10.67;;
7989;SDS011;4040;42.848;23.034;2024-02-23T03:45:50;17.40;;;9.37;;
7989;SDS011;4040;42.848;23.034;2024-02-23T03:48:17;18.23;;;10.03;;
7989;SDS011;4040;42.848;23.034;2024-02-23T03:50:45;15.53;;;8.80;;
7989;SDS011;4040;42.848;23.034;2024-02-23T03:53:13;11.67;;;6.90;;
7989;SDS011;4040;42.848;23.034;2024-02-23T03:55:40;15.80;;;9.57;;
7989;SDS011;4040;42.848;23.034;2024-02-23T03:58:09;14.63;;;9.53;;
7989;SDS011;4040;42.848;23.034;2024-02-23T04:00:36;14.57;;;8.63;;
7989;SDS011;4040;42.848;23.034;2024-02-23T04:03:04;14.23;;;8.80;;
7989;SDS011;4040;42.848;23.034;2024-02-23T04:05:31;16.43;;;10.07;;
7989;SDS011;4040;42.848;23.034;2024-02-23T04:07:59;27.07;;;15.80;;
7989;SDS011;4040;42.848;23.034;2024-02-23T04:10:26;19.00;;;11.97;;
7989;SDS011;4040;42.848;23.034;2024-02-23T04:12:53;16.07;;;11.47;;
7989;SDS011;4040;42.848;23.034;2024-02-23T04:15:22;14.37;;;9.20;;
7989;SDS011;4040;42.848;23.034;2024-02-23T04:17:49;10.80;;;8.10;;
7989;SDS011;4040;42.848;23.034;2024-02-23T04:20:17;14.23;;;8.10;;
7989;SDS011;4040;42.848;23.034;2024-02-23T04:22:44;13.53;;;8.07;;
7989;SDS011;4040;42.848;23.034;2024-02-23T04:25:12;17.83;;;11.20;;
7989;SDS011;4040;42.848;23.034;2024-02-23T04:27:39;19.53;;;9.73;;
7989;SDS011;4040;42.848;23.034;2024-02-23T04:30:07;17.23;;;10.93;;
7989;SDS011;4040;42.848;23.034;2024-02-23T04:32:36;22.73;;;11.60;;
7989;SDS011;4040;42.848;23.034;2024-02-23T04:35:05;16.57;;;10.20;;
7989;SDS011;4040;42.848;23.034;2024-02-23T04:37:33;21.83;;;11.63;;
7989;SDS011;4040;42.848;23.034;2024-02-23T04:40:00;22.87;;;13.83;;
7989;SDS011;4040;42.848;23.034;2024-02-23T04:42:29;16.27;;;9.70;;
7989;SDS011;4040;42.848;23.034;2024-02-23T04:44:56;18.43;;;10.93;;
7989;SDS011;4040;42.848;23.034;2024-02-23T04:47:24;15.97;;;8.73;;
7989;SDS011;4040;42.848;23.034;2024-02-23T04:49:53;12.57;;;7.90;;
7989;SDS011;4040;42.848;23.034;2024-02-23T04:52:20;16.90;;;9.73;;
7989;SDS011;4040;42.848;23.034;2024-02-23T04:54:47;21.90;;;10.93;;
7989;SDS011;4040;42.848;23.034;2024-02-23T04:57:15;19.63;;;11.70;;
7989;SDS011;4040;42.848;23.034;2024-02-23T04:59:42;19.63;;;11.73;;
7989;SDS011;4040;42.848;23.034;2024-02-23T05:02:10;23.03;;;14.73;;
7989;SDS011;4040;42.848;23.034;2024-02-23T05:04:37;36.20;;;23.60;;
7989;SDS011;4040;42.848;23.034;2024-02-23T05:07:06;26.17;;;14.27;;
7989;SDS011;4040;42.848;23.034;2024-02-23T05:09:33;26.63;;;15.10;;
7989;SDS011;4040;42.848;23.034;2024-02-23T05:12:01;26.23;;;15.30;;
7989;SDS011;4040;42.848;23.034;2024-02-23T05:14:28;30.17;;;14.67;;
7989;SDS011;4040;42.848;23.034;2024-02-23T05:16:55;33.57;;;14.37;;
7989;SDS011;4040;42.848;23.034;2024-02-23T05:19:23;36.43;;;17.57;;
7989;SDS011;4040;42.848;23.034;2024-02-23T05:21:50;17.43;;;10.87;;
7989;SDS011;4040;42.848;23.034;2024-02-23T05:24:19;27.53;;;12.90;;
7989;SDS011;4040;42.848;23.034;2024-02-23T05:26:46;19.23;;;12.83;;
7989;SDS011;4040;42.848;23.034;2024-02-23T05:29:14;26.07;;;14.27;;
7989;SDS011;4040;42.848;23.034;2024-02-23T05:31:45;33.70;;;15.17;;
7989;SDS011;4040;42.848;23.034;2024-02-23T05:34:13;23.57;;;12.97;;
7989;SDS011;4040;42.848;23.034;2024-02-23T05:36:41;23.17;;;14.10;;
7989;SDS011;4040;42.848;23.034;2024-02-23T05:39:09;24.97;;;13.73;;
7989;SDS011;4040;42.848;23.034;2024-02-23T05:41:39;24.50;;;12.67;;
7989;SDS011;4040;42.848;23.034;2024-02-23T05:44:06;19.93;;;10.33;;
7989;SDS011;4040;42.848;23.034;2024-02-23T05:46:34;24.70;;;12.97;;
7989;SDS011;4040;42.848;23.034;2024-02-23T05:49:02;28.23;;;12.93;;
7989;SDS011;4040;42.848;23.034;2024-02-23T05:51:30;22.07;;;11.87;;
7989;SDS011;4040;42.848;23.034;2024-02-23T05:53:59;20.70;;;12.23;;
7989;SDS011;4040;42.848;23.034;2024-02-23T05:56:26;21.13;;;11.33;;
7989;SDS011;4040;42.848;23.034;2024-02-23T05:58:55;22.77;;;12.13;;
7989;SDS011;4040;42.848;23.034;2024-02-23T06:01:22;18.87;;;11.67;;
7989;SDS011;4040;42.848;23.034;2024-02-23T06:03:50;21.80;;;12.70;;
7989;SDS011;4040;42.848;23.034;2024-02-23T06:06:18;19.03;;;11.77;;
7989;SDS011;4040;42.848;23.034;2024-02-23T06:08:46;26.33;;;14.83;;
7989;SDS011;4040;42.848;23.034;2024-02-23T06:11:14;22.63;;;13.77;;
7989;SDS011;4040;42.848;23.034;2024-02-23T06:13:42;20.27;;;12.63;;
7989;SDS011;4040;42.848;23.034;2024-02-23T06:16:11;17.13;;;10.73;;
7989;SDS011;4040;42.848;23.034;2024-02-23T06:18:38;17.30;;;10.37;;
7989;SDS011;4040;42.848;23.034;2024-02-23T06:21:15;18.13;;;10.40;;
7989;SDS011;4040;42.848;23.034;2024-02-23T06:23:43;20.93;;;11.63;;
7989;SDS011;4040;42.848;23.034;2024-02-23T06:26:10;25.30;;;14.80;;
7989;SDS011;4040;42.848;23.034;2024-02-23T06:28:38;30.30;;;15.53;;
7989;SDS011;4040;42.848;23.034;2024-02-23T06:31:07;39.97;;;22.37;;
7989;SDS011;4040;42.848;23.034;2024-02-23T06:33:36;44.35;;;21.63;;
7989;SDS011;4040;42.848;23.034;2024-02-23T06:36:03;24.45;;;13.80;;
7989;SDS011;4040;42.848;23.034;2024-02-23T06:38:31;22.60;;;14.45;;
7989;SDS011;4040;42.848;23.034;2024-02-23T06:40:58;27.33;;;15.65;;
7989;SDS011;4040;42.848;23.034;2024-02-23T06:43:26;30.85;;;18.55;;
7989;SDS011;4040;42.848;23.034;2024-02-23T06:45:54;25.63;;;16.20;;
7989;SDS011;4040;42.848;23.034;2024-02-23T06:48:21;27.73;;;14.90;;
7989;SDS011;4040;42.848;23.034;2024-02-23T06:50:52;39.17;;;20.70;;
7989;SDS011;4040;42.848;23.034;2024-02-23T06:53:20;64.65;;;34.00;;
7989;SDS011;4040;42.848;23.034;2024-02-23T06:55:47;38.80;;;23.38;;
7989;SDS011;4040;42.848;23.034;2024-02-23T06:58:15;19.52;;;12.43;;
7989;SDS011;4040;42.848;23.034;2024-02-23T07:00:43;16.25;;;11.68;;
7989;SDS011;4040;42.848;23.034;2024-02-23T07:03:11;19.42;;;12.35;;
7989;SDS011;4040;42.848;23.034;2024-02-23T07:05:39;18.73;;;11.32;;
7989;SDS011;4040;42.848;23.034;2024-02-23T07:08:09;16.75;;;8.45;;
7989;SDS011;4040;42.848;23.034;2024-02-23T07:10:37;14.95;;;8.80;;
7989;SDS011;4040;42.848;23.034;2024-02-23T07:13:04;18.65;;;11.43;;
7989;SDS011;4040;42.848;23.034;2024-02-23T07:15:32;13.63;;;9.95;;
7989;SDS011;4040;42.848;23.034;2024-02-23T07:18:01;14.18;;;8.82;;
7989;SDS011;4040;42.848;23.034;2024-02-23T07:20:28;12.73;;;7.55;;
7989;SDS011;4040;42.848;23.034;2024-02-23T07:22:55;12.27;;;6.90;;
7989;SDS011;4040;42.848;23.034;2024-02-23T07:25:24;8.88;;;6.75;;
7989;SDS011;4040;42.848;23.034;2024-02-23T07:27:52;12.25;;;7.38;;
7989;SDS011;4040;42.848;23.034;2024-02-23T07:30:19;10.43;;;6.57;;
7989;SDS011;4040;42.848;23.034;2024-02-23T07:32:47;10.60;;;6.75;;
7989;SDS011;4040;42.848;23.034;2024-02-23T07:35:14;10.98;;;7.40;;
7989;SDS011;4040;42.848;23.034;2024-02-23T07:37:42;8.88;;;6.72;;
7989;SDS011;4040;42.848;23.034;2024-02-23T07:40:09;7.57;;;5.03;;
7989;SDS011;4040;42.848;23.034;2024-02-23T07:42:39;6.05;;;5.03;;
7989;SDS011;4040;42.848;23.034;2024-02-23T07:45:07;7.55;;;5.25;;
7989;SDS011;4040;42.848;23.034;2024-02-23T07:47:36;7.35;;;4.75;;
7989;SDS011;4040;42.848;23.034;2024-02-23T07:50:03;7.15;;;4.88;;
7989;SDS011;4040;42.848;23.034;2024-02-23T07:52:31;5.95;;;4.53;;
7989;SDS011;4040;42.848;23.034;2024-02-23T07:54:58;5.20;;;4.10;;
7989;SDS011;4040;42.848;23.034;2024-02-23T07:57:28;9.73;;;5.45;;
7989;SDS011;4040;42.848;23.034;2024-02-23T07:59:58;7.88;;;4.15;;
7989;SDS011;4040;42.848;23.034;2024-02-23T08:02:25;5.20;;;3.45;;
7989;SDS011;4040;42.848;23.034;2024-02-23T08:04:52;5.30;;;3.83;;
7989;SDS011;4040;42.848;23.034;2024-02-23T08:07:20;5.45;;;3.80;;
7989;SDS011;4040;42.848;23.034;2024-02-23T08:09:48;3.35;;;2.78;;
7989;SDS011;4040;42.848;23.034;2024-02-23T08:12:15;6.93;;;3.92;;
7989;SDS011;4040;42.848;23.034;2024-02-23T08:14:43;5.72;;;3.58;;
7989;SDS011;4040;42.848;23.034;2024-02-23T08:17:12;4.75;;;3.67;;
7989;SDS011;4040;42.848;23.034;2024-02-23T08:19:39;5.78;;;4.10;;
7989;SDS011;4040;42.848;23.034;2024-02-23T08:22:07;3.63;;;2.72;;
7989;SDS011;4040;42.848;23.034;2024-02-23T08:24:34;3.92;;;3.28;;
7989;SDS011;4040;42.848;23.034;2024-02-23T08:27:02;5.30;;;3.55;;
7989;SDS011;4040;42.848;23.034;2024-02-23T08:29:29;5.97;;;3.88;;
7989;SDS011;4040;42.848;23.034;2024-02-23T08:31:57;4.45;;;3.60;;
7989;SDS011;4040;42.848;23.034;2024-02-23T08:34:25;7.95;;;3.97;;
7989;SDS011;4040;42.848;23.034;2024-02-23T08:36:53;5.97;;;4.60;;
7989;SDS011;4040;42.848;23.034;2024-02-23T08:39:20;7.93;;;4.18;;
7989;SDS011;4040;42.848;23.034;2024-02-23T08:41:48;8.60;;;4.45;;
7989;SDS011;4040;42.848;23.034;2024-02-23T08:44:16;4.68;;;3.40;;
7989;SDS011;4040;42.848;23.034;2024-02-23T08:46:44;4.85;;;3.88;;
7989;SDS011;4040;42.848;23.034;2024-02-23T08:49:11;3.90;;;3.17;;
7989;SDS011;4040;42.848;23.034;2024-02-23T08:51:40;5.85;;;4.25;;
7989;SDS011;4040;42.848;23.034;2024-02-23T08:54:07;20.80;;;8.00;;
7989;SDS011;4040;42.848;23.034;2024-02-23T08:56:36;8.50;;;4.35;;
7989;SDS011;4040;42.848;23.034;2024-02-23T08:59:04;6.13;;;3.35;;
7989;SDS011;4040;42.848;23.034;2024-02-23T09:01:32;2.17;;;1.70;;
7989;SDS011;4040;42.848;23.034;2024-02-23T09:03:59;2.25;;;1.95;;
7989;SDS011;4040;42.848;23.034;2024-02-23T09:06:27;8.75;;;4.72;;
7989;SDS011;4040;42.848;23.034;2024-02-23T09:08:55;5.63;;;3.10;;
7989;SDS011;4040;42.848;23.034;2024-02-23T09:11:23;5.03;;;3.20;;
7989;SDS011;4040;42.848;23.034;2024-02-23T09:13:50;3.50;;;2.40;;
7989;SDS011;4040;42.848;23.034;2024-02-23T09:16:18;11.80;;;6.90;;
7989;SDS011;4040;42.848;23.034;2024-02-23T09:18:47;4.25;;;1.95;;
7989;SDS011;4040;42.848;23.034;2024-02-23T09:21:15;2.95;;;2.40;;
7989;SDS011;4040;42.848;23.034;2024-02-23T09:23:45;4.65;;;3.70;;
7989;SDS011;4040;42.848;23.034;2024-02-23T09:26:14;24.00;;;13.95;;
7989;SDS011;4040;42.848;23.034;2024-02-23T09:28:43;7.70;;;4.05;;
7989;SDS011;4040;42.848;23.034;2024-02-23T09:31:10;27.27;;;13.88;;
7989;SDS011;4040;42.848;23.034;2024-02-23T09:33:38;2.95;;;2.15;;
7989;SDS011;4040;42.848;23.034;2024-02-23T09:36:06;10.57;;;6.30;;
7989;SDS011;4040;42.848;23.034;2024-02-23T09:38:35;4.20;;;3.35;;
7989;SDS011;4040;42.848;23.034;2024-02-23T09:41:03;3.72;;;2.78;;
7989;SDS011;4040;42.848;23.034;2024-02-23T09:43:32;4.97;;;2.63;;
7989;SDS011;4040;42.848;23.034;2024-02-23T09:46:01;3.83;;;2.05;;
7989;SDS011;4040;42.848;23.034;2024-02-23T09:48:29;3.53;;;2.55;;
7989;SDS011;4040;42.848;23.034;2024-02-23T09:51:00;3.00;;;2.22;;
7989;SDS011;4040;42.848;23.034;2024-02-23T09:53:28;2.88;;;2.20;;
7989;SDS011;4040;42.848;23.034;2024-02-23T09:55:57;2.90;;;1.80;;
7989;SDS011;4040;42.848;23.034;2024-02-23T09:58:25;2.72;;;2.15;;
7989;SDS011;4040;42.848;23.034;2024-02-23T10:00:56;2.40;;;1.95;;
7989;SDS011;4040;42.848;23.034;2024-02-23T10:03:25;3.65;;;3.00;;
7989;SDS011;4040;42.848;23.034;2024-02-23T10:05:55;4.70;;;3.03;;
7989;SDS011;4040;42.848;23.034;2024-02-23T10:08:23;5.05;;;3.78;;
7989;SDS011;4040;42.848;23.034;2024-02-23T10:10:50;5.65;;;4.05;;
7989;SDS011;4040;42.848;23.034;2024-02-23T10:13:18;3.60;;;3.00;;
7989;SDS011;4040;42.848;23.034;2024-02-23T10:15:46;2.50;;;2.10;;
7989;SDS011;4040;42.848;23.034;2024-02-23T10:18:15;3.08;;;2.22;;
7989;SDS011;4040;42.848;23.034;2024-02-23T10:20:43;2.45;;;1.85;;
7989;SDS011;4040;42.848;23.034;2024-02-23T10:23:10;2.10;;;1.90;;
7989;SDS011;4040;42.848;23.034;2024-02-23T10:25:38;2.67;;;2.20;;
7989;SDS011;4040;42.848;23.034;2024-02-23T10:28:06;2.28;;;1.83;;
7989;SDS011;4040;42.848;23.034;2024-02-23T10:30:36;4.13;;;2.22;;
7989;SDS011;4040;42.848;23.034;2024-02-23T10:33:04;3.67;;;2.47;;
7989;SDS011;4040;42.848;23.034;2024-02-23T10:35:33;3.08;;;2.70;;
7989;SDS011;4040;42.848;23.034;2024-02-23T10:38:06;1.83;;;1.60;;
7989;SDS011;4040;42.848;23.034;2024-02-23T10:40:36;3.17;;;2.40;;
7989;SDS011;4040;42.848;23.034;2024-02-23T10:43:08;3.60;;;3.10;;
7989;SDS011;4040;42.848;23.034;2024-02-23T10:45:39;2.78;;;2.20;;
7989;SDS011;4040;42.848;23.034;2024-02-23T10:48:07;2.83;;;2.50;;
7989;SDS011;4040;42.848;23.034;2024-02-23T10:50:37;3.65;;;2.42;;
7989;SDS011;4040;42.848;23.034;2024-02-23T10:53:07;2.67;;;2.30;;
7989;SDS011;4040;42.848;23.034;2024-02-23T10:55:35;4.70;;;3.28;;
7989;SDS011;4040;42.848;23.034;2024-02-23T10:58:04;2.47;;;2.08;;
7989;SDS011;4040;42.848;23.034;2024-02-23T11:00:36;2.55;;;2.20;;
7989;SDS011;4040;42.848;23.034;2024-02-23T11:03:04;3.50;;;2.05;;
7989;SDS011;4040;42.848;23.034;2024-02-23T11:05:33;2.92;;;2.00;;
7989;SDS011;4040;42.848;23.034;2024-02-23T11:08:03;5.53;;;3.03;;
7989;SDS011;4040;42.848;23.034;2024-02-23T11:10:41;2.35;;;1.77;;
7989;SDS011;4040;42.848;23.034;2024-02-23T11:13:08;4.25;;;2.30;;
7989;SDS011;4040;42.848;23.034;2024-02-23T11:15:36;4.75;;;2.83;;
7989;SDS011;4040;42.848;23.034;2024-02-23T11:18:21;2.10;;;1.77;;
7989;SDS011;4040;42.848;23.034;2024-02-23T11:20:53;2.80;;;2.08;;
7989;SDS011;4040;42.848;23.034;2024-02-23T11:23:22;2.30;;;1.42;;
7989;SDS011;4040;42.848;23.034;2024-02-23T11:26:04;4.00;;;3.20;;
7989;SDS011;4040;42.848;23.034;2024-02-23T11:28:41;4.55;;;2.50;;
7989;SDS011;4040;42.848;23.034;2024-02-23T11:31:12;3.33;;;3.00;;
7989;SDS011;4040;42.848;23.034;2024-02-23T11:33:40;4.57;;;3.00;;
7989;SDS011;4040;42.848;23.034;2024-02-23T11:36:21;3.17;;;2.83;;
7989;SDS011;4040;42.848;23.034;2024-02-23T11:38:52;4.22;;;2.20;;
7989;SDS011;4040;42.848;23.034;2024-02-23T11:41:21;3.17;;;1.80;;
7989;SDS011;4040;42.848;23.034;2024-02-23T11:43:50;2.10;;;1.60;;
7989;SDS011;4040;42.848;23.034;2024-02-23T11:46:18;2.13;;;1.70;;
7989;SDS011;4040;42.848;23.034;2024-02-23T11:48:45;2.17;;;1.75;;
7989;SDS011;4040;42.848;23.034;2024-02-23T11:51:18;2.25;;;1.75;;
7989;SDS011;4040;42.848;23.034;2024-02-23T11:53:46;3.15;;;2.17;;
7989;SDS011;4040;42.848;23.034;2024-02-23T11:56:15;3.60;;;2.33;;
7989;SDS011;4040;42.848;23.034;2024-02-23T11:58:43;2.90;;;1.85;;
7989;SDS011;4040;42.848;23.034;2024-02-23T12:01:11;3.20;;;1.80;;
7989;SDS011;4040;42.848;23.034;2024-02-23T12:03:38;2.30;;;1.52;;
7989;SDS011;4040;42.848;23.034;2024-02-23T12:06:06;2.17;;;1.98;;
7989;SDS011;4040;42.848;23.034;2024-02-23T12:08:34;3.92;;;2.03;;
7989;SDS011;4040;42.848;23.034;2024-02-23T12:11:04;3.03;;;2.00;;
7989;SDS011;4040;42.848;23.034;2024-02-23T12:13:35;3.47;;;2.25;;
7989;SDS011;4040;42.848;23.034;2024-02-23T12:16:03;2.63;;;1.25;;
7989;SDS011;4040;42.848;23.034;2024-02-23T12:18:32;3.38;;;2.53;;
7989;SDS011;4040;42.848;23.034;2024-02-23T12:21:00;3.10;;;1.88;;
7989;SDS011;4040;42.848;23.034;2024-02-23T12:23:37;3.47;;;1.73;;
7989;SDS011;4040;42.848;23.034;2024-02-23T12:26:06;4.07;;;2.13;;
7989;SDS011;4040;42.848;23.034;2024-02-23T12:28:35;2.10;;;1.48;;
7989;SDS011;4040;42.848;23.034;2024-02-23T12:31:03;8.05;;;3.10;;
7989;SDS011;4040;42.848;23.034;2024-02-23T12:33:31;8.88;;;3.42;;
7989;SDS011;4040;42.848;23.034;2024-02-23T12:36:00;1.98;;;1.38;;
7989;SDS011;4040;42.848;23.034;2024-02-23T12:38:27;2.05;;;1.80;;
7989;SDS011;4040;42.848;23.034;2024-02-23T12:40:55;6.07;;;2.00;;
7989;SDS011;4040;42.848;23.034;2024-02-23T12:43:23;3.38;;;2.25;;
7989;SDS011;4040;42.848;23.034;2024-02-23T12:45:52;1.48;;;1.33;;
7989;SDS011;4040;42.848;23.034;2024-02-23T12:48:20;5.53;;;2.72;;
7989;SDS011;4040;42.848;23.034;2024-02-23T12:50:48;2.00;;;1.75;;
7989;SDS011;4040;42.848;23.034;2024-02-23T12:53:30;3.55;;;2.40;;
7989;SDS011;4040;42.848;23.034;2024-02-23T12:55:59;2.22;;;1.63;;
7989;SDS011;4040;42.848;23.034;2024-02-23T12:58:28;5.15;;;4.63;;
7989;SDS011;4040;42.848;23.034;2024-02-23T13:00:57;1.77;;;1.60;;
7989;SDS011;4040;42.848;23.034;2024-02-23T13:03:24;4.38;;;2.50;;
7989;SDS011;4040;42.848;23.034;2024-02-23T13:05:53;3.53;;;2.40;;
7989;SDS011;4040;42.848;23.034;2024-02-23T13:08:20;1.98;;;1.75;;
7989;SDS011;4040;42.848;23.034;2024-02-23T13:10:48;1.42;;;1.30;;
7989;SDS011;4040;42.848;23.034;2024-02-23T13:13:15;6.15;;;3.15;;
7989;SDS011;4040;42.848;23.034;2024-02-23T13:15:43;1.60;;;1.40;;
7989;SDS011;4040;42.848;23.034;2024-02-23T13:18:12;2.33;;;1.73;;
7989;SDS011;4040;42.848;23.034;2024-02-23T13:20:39;2.88;;;2.03;;
7989;SDS011;4040;42.848;23.034;2024-02-23T13:23:07;4.45;;;1.95;;
7989;SDS011;4040;42.848;23.034;2024-02-23T13:25:35;5.22;;;2.67;;
7989;SDS011;4040;42.848;23.034;2024-02-23T13:28:03;5.20;;;2.42;;
7989;SDS011;4040;42.848;23.034;2024-02-23T13:30:31;1.48;;;0.90;;
7989;SDS011;4040;42.848;23.034;2024-02-23T13:32:58;1.67;;;1.27;;
7989;SDS011;4040;42.848;23.034;2024-02-23T13:35:27;1.08;;;1.00;;
7989;SDS011;4040;42.848;23.034;2024-02-23T13:37:55;4.20;;;1.85;;
7989;SDS011;4040;42.848;23.034;2024-02-23T13:40:22;4.47;;;1.58;;
7989;SDS011;4040;42.848;23.034;2024-02-23T13:42:50;2.88;;;2.05;;
7989;SDS011;4040;42.848;23.034;2024-02-23T13:45:18;5.55;;;2.97;;
7989;SDS011;4040;42.848;23.034;2024-02-23T13:47:55;2.33;;;1.90;;
7989;SDS011;4040;42.848;23.034;2024-02-23T13:50:23;4.10;;;1.63;;
7989;SDS011;4040;42.848;23.034;2024-02-23T13:52:52;2.60;;;1.45;;
7989;SDS011;4040;42.848;23.034;2024-02-23T13:55:20;2.65;;;1.30;;
7989;SDS011;4040;42.848;23.034;2024-02-23T13:57:47;2.53;;;1.52;;
7989;SDS011;4040;42.848;23.034;2024-02-23T14:00:15;1.73;;;1.40;;
7989;SDS011;4040;42.848;23.034;2024-02-23T14:02:44;2.03;;;1.55;;
7989;SDS011;4040;42.848;23.034;2024-02-23T14:05:11;2.78;;;1.60;;
7989;SDS011;4040;42.848;23.034;2024-02-23T14:07:40;2.65;;;1.70;;
7989;SDS011;4040;42.848;23.034;2024-02-23T14:10:09;2.45;;;1.60;;
7989;SDS011;4040;42.848;23.034;2024-02-23T14:12:37;3.78;;;2.13;;
7989;SDS011;4040;42.848;23.034;2024-02-23T14:15:04;2.05;;;1.77;;
7989;SDS011;4040;42.848;23.034;2024-02-23T14:17:32;1.75;;;1.50;;
7989;SDS011;4040;42.848;23.034;2024-02-23T14:20:00;1.92;;;1.60;;
7989;SDS011;4040;42.848;23.034;2024-02-23T14:22:28;2.78;;;2.15;;
7989;SDS011;4040;42.848;23.034;2024-02-23T14:24:56;2.05;;;1.83;;
7989;SDS011;4040;42.848;23.034;2024-02-23T14:27:25;2.95;;;2.33;;
7989;SDS011;4040;42.848;23.034;2024-02-23T14:29:53;3.10;;;1.80;;
7989;SDS011;4040;42.848;23.034;2024-02-23T14:32:21;3.92;;;1.80;;
7989;SDS011;4040;42.848;23.034;2024-02-23T14:34:49;5.88;;;1.52;;
7989;SDS011;4040;42.848;23.034;2024-02-23T14:37:16;4.40;;;2.88;;
7989;SDS011;4040;42.848;23.034;2024-02-23T14:39:44;4.75;;;3.28;;
7989;SDS011;4040;42.848;23.034;2024-02-23T14:42:11;5.03;;;3.05;;
7989;SDS011;4040;42.848;23.034;2024-02-23T14:44:40;2.35;;;1.98;;
7989;SDS011;4040;42.848;23.034;2024-02-23T14:47:07;11.50;;;4.65;;
7989;SDS011;4040;42.848;23.034;2024-02-23T14:49:35;10.18;;;5.60;;
7989;SDS011;4040;42.848;23.034;2024-02-23T14:52:02;7.00;;;3.97;;
7989;SDS011;4040;42.848;23.034;2024-02-23T14:54:30;11.30;;;4.90;;
7989;SDS011;4040;42.848;23.034;2024-02-23T14:56:58;10.13;;;4.72;;